createdAt,value
2019-01-21T00:00:55.188Z,19.80
2019-01-21T00:03:24.200Z,19.10
2019-01-21T00:05:52.947Z,19.20
2019-01-21T00:08:22.041Z,19.67
2019-01-21T00:10:50.776Z,19.17
2019-01-21T00:13:19.588Z,19.40
2019-01-21T00:15:48.562Z,19.13
2019-01-21T00:18:18.099Z,20.57
2019-01-21T00:20:46.889Z,20.20
2019-01-21T00:23:15.799Z,19.77
2019-01-21T00:25:44.933Z,19.63
2019-01-21T00:28:14.388Z,20.07
2019-01-21T00:30:43.253Z,20.60
2019-01-21T00:33:12.004Z,19.00
2019-01-21T00:35:40.941Z,18.80
2019-01-21T00:38:09.760Z,20.43
2019-01-21T00:40:38.581Z,20.90
2019-01-21T00:43:07.400Z,21.13
2019-01-21T00:45:36.239Z,20.67
2019-01-21T00:48:05.508Z,19.77
2019-01-21T00:50:34.853Z,19.70
2019-01-21T00:53:04.394Z,20.10
2019-01-21T00:55:33.236Z,20.73
2019-01-21T00:58:02.043Z,19.67
2019-01-21T01:00:31.043Z,19.73
2019-01-21T01:02:59.995Z,19.50
2019-01-21T01:05:28.841Z,18.93
2019-01-21T01:07:57.600Z,19.60
2019-01-21T01:10:26.470Z,19.97
2019-01-21T01:12:55.267Z,20.97
2019-01-21T01:15:24.044Z,19.67
2019-01-21T01:17:52.812Z,19.47
2019-01-21T01:20:22.242Z,19.97
2019-01-21T01:22:51.065Z,19.97
2019-01-21T01:25:19.943Z,19.60
2019-01-21T01:27:48.714Z,19.63
2019-01-21T01:30:17.772Z,19.50
2019-01-21T01:32:46.528Z,19.37
2019-01-21T01:35:16.109Z,20.03
2019-01-21T01:37:45.105Z,20.33
2019-01-21T01:40:15.383Z,21.10
2019-01-21T01:42:44.207Z,19.83
2019-01-21T01:45:15.058Z,19.80
2019-01-21T01:47:44.834Z,19.80
2019-01-21T01:50:13.941Z,20.27
2019-01-21T01:52:42.758Z,19.93
2019-01-21T01:55:11.516Z,19.87
2019-01-21T01:57:40.329Z,20.00
2019-01-21T02:00:10.541Z,20.03
2019-01-21T02:02:39.493Z,20.33
2019-01-21T02:05:08.502Z,19.40
2019-01-21T02:07:37.447Z,20.57
2019-01-21T02:10:06.444Z,22.55
2019-01-21T02:12:35.477Z,20.57
2019-01-21T02:15:05.524Z,20.30
2019-01-21T02:17:34.291Z,19.20
2019-01-21T02:20:03.101Z,19.93
2019-01-21T02:22:32.073Z,20.80
2019-01-21T02:25:02.914Z,20.90
2019-01-21T02:27:36.838Z,21.97
2019-01-21T02:30:15.336Z,20.53
2019-01-21T02:32:47.451Z,21.63
2019-01-21T02:35:28.171Z,19.42
2019-01-21T02:38:22.383Z,19.93
2019-01-21T02:40:54.362Z,21.13
2019-01-21T02:43:42.441Z,20.73
2019-01-21T02:46:45.331Z,21.43
2019-01-21T02:49:35.958Z,20.90
2019-01-21T02:52:26.872Z,20.10
2019-01-21T02:55:15.054Z,20.67
2019-01-21T02:58:02.871Z,20.60
2019-01-21T03:00:35.589Z,21.17
2019-01-21T03:03:38.678Z,21.07
2019-01-21T03:06:29.628Z,20.97
2019-01-21T03:09:16.055Z,20.43
2019-01-21T03:12:06.984Z,19.50
2019-01-21T03:14:53.213Z,19.47
2019-01-21T03:17:43.492Z,20.57
2019-01-21T03:20:15.152Z,20.93
2019-01-21T03:22:55.050Z,21.80
2019-01-21T03:25:42.935Z,22.47
2019-01-21T03:28:29.659Z,21.97
2019-01-21T03:31:15.356Z,19.00
2019-01-21T03:33:59.333Z,20.57
2019-01-21T03:36:45.285Z,20.87
2019-01-21T03:39:33.347Z,20.73
2019-01-21T03:42:10.799Z,20.53
2019-01-21T03:44:58.726Z,21.13
2019-01-21T03:47:52.959Z,21.47
2019-01-21T03:50:35.515Z,22.03
2019-01-21T03:53:23.202Z,22.63
2019-01-21T03:55:54.728Z,20.97
2019-01-21T03:58:45.291Z,21.80
2019-01-21T04:01:24.362Z,21.00
2019-01-21T04:04:15.280Z,21.03
2019-01-21T04:06:47.138Z,21.70
2019-01-21T04:09:33.968Z,20.50
2019-01-21T04:12:40.094Z,20.60
2019-01-21T04:15:27.296Z,20.47
2019-01-21T04:18:15.582Z,21.53
2019-01-21T04:21:09.415Z,21.40
2019-01-21T04:23:55.984Z,19.50
2019-01-21T04:26:29.764Z,21.10
2019-01-21T04:29:32.966Z,21.77
2019-01-21T04:32:36.130Z,20.97
2019-01-21T04:35:12.471Z,20.80
2019-01-21T04:38:03.175Z,20.23
2019-01-21T04:40:38.735Z,21.10
2019-01-21T04:43:29.688Z,20.92
2019-01-21T04:46:16.423Z,20.23
2019-01-21T04:49:16.255Z,21.00
2019-01-21T04:51:54.948Z,19.93
2019-01-21T04:54:58.262Z,19.87
2019-01-21T04:57:40.645Z,19.73
2019-01-21T05:00:33.455Z,19.17
2019-01-21T05:03:21.631Z,19.37
2019-01-21T05:06:00.967Z,19.20
2019-01-21T05:08:49.891Z,19.23
2019-01-21T05:11:26.701Z,19.60
2019-01-21T05:14:00.824Z,19.37
2019-01-21T05:16:48.686Z,18.80
2019-01-21T05:19:40.758Z,19.00
2019-01-21T05:22:32.984Z,19.62
2019-01-21T05:25:20.742Z,19.40
2019-01-21T05:28:08.697Z,19.43
2019-01-21T05:30:42.390Z,19.30
2019-01-21T05:33:39.275Z,20.40
2019-01-21T05:36:23.340Z,19.43
2019-01-21T05:42:23.342Z,20.90
2019-01-21T05:45:14.905Z,20.57
2019-01-21T05:48:02.934Z,20.37
2019-01-21T05:51:07.212Z,19.50
2019-01-21T05:53:53.808Z,19.53
2019-01-21T05:56:41.717Z,21.00
2019-01-21T05:59:30.406Z,20.07
2019-01-21T06:02:30.382Z,20.90
2019-01-21T06:05:04.639Z,20.63
2019-01-21T06:07:47.708Z,20.97
2019-01-21T06:10:23.225Z,19.80
2019-01-21T06:13:20.248Z,21.23
2019-01-21T06:16:17.384Z,20.60
2019-01-21T06:19:17.456Z,19.03
2019-01-21T06:22:20.562Z,18.63
2019-01-21T06:25:08.437Z,18.73
2019-01-21T06:27:56.304Z,18.53
2019-01-21T06:30:36.076Z,15.50
2019-01-21T06:33:30.112Z,16.07
2019-01-21T06:36:21.468Z,18.67
2019-01-21T06:39:15.634Z,21.83
2019-01-21T06:42:12.452Z,23.23
2019-01-21T06:44:46.129Z,21.60
2019-01-21T06:47:39.846Z,19.13
2019-01-21T06:50:24.027Z,19.23
2019-01-21T06:53:24.098Z,18.87
2019-01-21T06:56:14.763Z,19.33
2019-01-21T06:59:03.523Z,20.37
2019-01-21T07:01:52.514Z,19.27
2019-01-21T07:04:52.459Z,18.20
2019-01-21T07:07:58.554Z,19.37
2019-01-21T07:10:52.296Z,20.13
2019-01-21T07:13:40.363Z,18.50
2019-01-21T07:16:26.788Z,18.47
2019-01-21T07:18:59.036Z,19.17
2019-01-21T07:21:59.345Z,19.63
2019-01-21T07:24:56.340Z,19.17
2019-01-21T07:27:47.273Z,16.30
2019-01-21T07:30:41.850Z,32.60
2019-01-21T07:33:44.986Z,19.03
2019-01-21T07:36:51.269Z,18.47
2019-01-21T07:39:42.243Z,17.67
2019-01-21T07:42:29.789Z,18.53
2019-01-21T07:45:17.373Z,19.47
2019-01-21T07:48:11.400Z,18.47
2019-01-21T07:50:46.414Z,19.33
2019-01-21T07:53:37.158Z,18.17
2019-01-21T07:56:31.038Z,18.17
2019-01-21T07:59:15.153Z,19.07
2019-01-21T08:01:56.550Z,18.93
2019-01-21T08:04:36.927Z,17.87
2019-01-21T08:07:31.177Z,18.47
2019-01-21T08:10:17.712Z,22.07
2019-01-21T08:13:08.347Z,18.83
2019-01-21T08:15:55.209Z,19.03
2019-01-21T08:18:49.389Z,19.27
2019-01-21T08:21:25.638Z,20.60
2019-01-21T08:24:09.860Z,20.57
2019-01-21T08:26:43.264Z,20.93
2019-01-21T08:29:21.657Z,22.03
2019-01-21T08:32:12.657Z,20.83
2019-01-21T08:34:48.434Z,21.40
2019-01-21T08:37:46.794Z,19.43
2019-01-21T08:40:34.880Z,21.27
2019-01-21T08:43:26.587Z,20.10
2019-01-21T08:46:09.325Z,20.33
2019-01-21T08:49:00.047Z,20.87
2019-01-21T08:51:47.065Z,21.23
2019-01-21T08:54:44.426Z,21.03
2019-01-21T08:57:24.601Z,21.67
2019-01-21T08:59:56.758Z,21.30
2019-01-21T09:02:33.013Z,20.93
2019-01-21T09:05:13.646Z,21.37
2019-01-21T09:07:57.359Z,22.83
2019-01-21T09:10:54.436Z,22.23
2019-01-21T09:13:44.798Z,21.37
2019-01-21T09:16:20.969Z,21.63
2019-01-21T09:19:08.834Z,22.73
2019-01-21T09:22:12.178Z,22.40
2019-01-21T09:24:48.911Z,22.93
2019-01-21T09:27:27.014Z,23.10
2019-01-21T09:30:09.712Z,21.55
2019-01-21T09:32:57.597Z,22.50
2019-01-21T09:35:57.352Z,24.17
2019-01-21T09:38:34.740Z,23.73
2019-01-21T09:41:34.930Z,22.60
2019-01-21T09:44:25.239Z,22.73
2019-01-21T09:46:53.323Z,21.77
2019-01-21T09:49:21.501Z,23.60
2019-01-21T09:52:07.548Z,23.33
2019-01-21T09:54:38.210Z,23.27
2019-01-21T09:57:07.808Z,23.13
2019-01-21T09:59:36.920Z,23.70
2019-01-21T10:02:09.635Z,23.40
2019-01-21T10:04:46.489Z,23.50
2019-01-21T10:07:19.354Z,24.07
2019-01-21T10:09:58.455Z,22.07
2019-01-21T10:12:38.378Z,23.97
2019-01-21T10:15:17.583Z,23.33
2019-01-21T10:18:20.634Z,23.87
2019-01-21T10:21:10.079Z,23.77
2019-01-21T10:24:13.108Z,22.10
2019-01-21T10:26:59.797Z,22.23
2019-01-21T10:29:59.743Z,22.53
2019-01-21T10:32:35.810Z,24.10
2019-01-21T10:35:11.773Z,22.83
2019-01-21T10:38:02.583Z,23.47
2019-01-21T10:40:59.590Z,22.03
2019-01-21T10:43:46.406Z,21.40
2019-01-21T10:46:49.682Z,21.77
2019-01-21T10:49:34.124Z,22.07
2019-01-21T10:52:20.643Z,23.43
2019-01-21T10:55:25.667Z,22.50
2019-01-21T10:58:01.707Z,22.40
2019-01-21T11:00:42.329Z,21.90
2019-01-21T11:03:24.142Z,22.43
2019-01-21T11:06:11.983Z,22.33
2019-01-21T11:08:59.898Z,22.37
2019-01-21T11:11:42.297Z,23.67
2019-01-21T11:14:36.281Z,23.90
2019-01-21T11:17:17.536Z,23.67
2019-01-21T11:20:05.423Z,23.93
2019-01-21T11:22:38.668Z,22.90
2019-01-21T11:25:25.737Z,22.20
2019-01-21T11:28:09.758Z,24.40
2019-01-21T11:30:48.430Z,24.57
2019-01-21T11:33:48.530Z,24.43
2019-01-21T11:36:36.398Z,23.47
2019-01-21T11:39:24.364Z,22.97
2019-01-21T11:42:15.067Z,25.57
2019-01-21T11:44:50.798Z,23.90
2019-01-21T11:47:38.618Z,24.17
2019-01-21T11:50:29.242Z,24.90
2019-01-21T11:53:20.211Z,23.23
2019-01-21T11:56:17.257Z,24.03
2019-01-21T11:59:00.272Z,22.57
2019-01-21T12:01:46.962Z,23.53
2019-01-21T12:04:18.453Z,24.67
2019-01-21T12:06:51.147Z,23.33
2019-01-21T12:09:28.083Z,23.00
2019-01-21T12:12:27.870Z,24.50
2019-01-21T12:15:14.717Z,22.83
2019-01-21T12:18:02.593Z,22.17
2019-01-21T12:21:08.891Z,22.33
2019-01-21T12:23:40.815Z,22.63
2019-01-21T12:26:17.033Z,21.53
2019-01-21T12:28:53.821Z,22.70
2019-01-21T12:31:40.343Z,21.60
2019-01-21T12:34:31.321Z,21.03
2019-01-21T12:37:07.364Z,19.30
2019-01-21T12:40:01.337Z,21.10
2019-01-21T12:42:37.033Z,20.87
2019-01-21T12:45:24.947Z,21.87
2019-01-21T12:48:12.838Z,21.60
2019-01-21T12:50:58.488Z,19.73
2019-01-21T12:53:52.632Z,20.40
2019-01-21T12:56:49.548Z,21.40
2019-01-21T12:59:23.686Z,21.13
2019-01-21T13:02:11.547Z,22.03
2019-01-21T13:04:58.314Z,21.90
2019-01-21T13:07:39.099Z,20.50
2019-01-21T13:10:33.280Z,21.83
2019-01-21T13:13:21.187Z,19.40
2019-01-21T13:16:09.095Z,20.20
2019-01-21T13:18:55.859Z,20.00
2019-01-21T13:21:54.715Z,18.90
2019-01-21T13:24:34.712Z,19.73
2019-01-21T13:27:13.982Z,19.67
2019-01-21T13:29:51.946Z,19.67
2019-01-21T13:32:24.118Z,19.17
2019-01-21T13:35:28.022Z,20.13
2019-01-21T13:38:17.644Z,19.40
2019-01-21T13:41:11.787Z,18.80
2019-01-21T13:43:47.086Z,19.67
2019-01-21T13:46:33.926Z,18.97
2019-01-21T13:49:12.852Z,17.92
2019-01-21T13:51:59.495Z,18.80
2019-01-21T13:54:44.211Z,18.83
2019-01-21T13:57:24.754Z,18.97
2019-01-21T14:00:23.539Z,17.47
2019-01-21T14:03:14.371Z,19.00
2019-01-21T14:05:54.077Z,18.07
2019-01-21T14:08:41.943Z,18.03
2019-01-21T14:11:42.027Z,17.57
2019-01-21T14:14:29.440Z,18.23
2019-01-21T14:17:06.291Z,19.17
2019-01-21T14:20:03.238Z,18.23
2019-01-21T14:23:00.416Z,16.73
2019-01-21T14:25:51.371Z,16.83
2019-01-21T14:28:28.942Z,17.47
2019-01-21T14:31:19.879Z,17.47
2019-01-21T14:33:54.043Z,18.13
2019-01-21T14:36:29.043Z,17.87
2019-01-21T14:39:20.122Z,17.07
2019-01-21T14:42:06.810Z,19.20
2019-01-21T14:44:59.272Z,18.40
2019-01-21T14:47:49.866Z,17.53
2019-01-21T14:50:40.779Z,17.23
2019-01-21T14:53:31.821Z,17.57
2019-01-21T14:56:22.390Z,17.83
2019-01-21T14:59:28.850Z,18.33
2019-01-21T15:02:02.395Z,17.50
2019-01-21T15:04:53.622Z,18.03
2019-01-21T15:07:26.377Z,17.97
2019-01-21T15:10:13.292Z,18.67
2019-01-21T15:12:49.973Z,18.13
2019-01-21T15:15:41.029Z,17.70
2019-01-21T15:18:32.183Z,17.60
2019-01-21T15:21:09.484Z,18.33
2019-01-21T15:23:46.330Z,17.33
2019-01-21T15:26:31.671Z,18.60
2019-01-21T15:29:09.713Z,18.13
2019-01-21T15:31:56.921Z,17.50
2019-01-21T15:34:36.354Z,17.43
2019-01-21T15:37:36.607Z,18.67
2019-01-21T15:40:27.405Z,17.97
2019-01-21T15:43:03.703Z,18.53
2019-01-21T15:46:07.041Z,17.97
2019-01-21T15:49:03.854Z,17.47
2019-01-21T15:52:07.270Z,18.30
2019-01-21T15:54:54.114Z,17.07
2019-01-21T15:57:43.389Z,18.70
2019-01-21T16:00:31.903Z,19.93
2019-01-21T16:03:08.186Z,18.67
2019-01-21T16:05:47.403Z,19.90
2019-01-21T16:08:28.439Z,19.63
2019-01-21T16:11:06.050Z,19.47
2019-01-21T16:14:03.130Z,19.43
2019-01-21T16:16:53.826Z,20.23
2019-01-21T16:19:24.394Z,20.00
2019-01-21T16:22:11.034Z,19.97
2019-01-21T16:25:11.306Z,21.37
2019-01-21T16:27:57.368Z,20.13
2019-01-21T16:30:30.955Z,20.33
2019-01-21T16:33:21.703Z,20.57
2019-01-21T16:35:58.102Z,20.70
2019-01-21T16:38:33.730Z,20.27
2019-01-21T16:41:20.629Z,21.67
2019-01-21T16:43:49.499Z,21.50
2019-01-21T16:46:18.410Z,23.03
2019-01-21T16:48:47.317Z,22.30
2019-01-21T16:51:20.261Z,20.70
2019-01-21T16:53:46.976Z,21.23
2019-01-21T16:56:15.886Z,20.33
2019-01-21T16:58:45.049Z,22.17
2019-01-21T17:01:14.114Z,22.93
2019-01-21T17:03:43.165Z,22.87
2019-01-21T17:06:12.236Z,23.13
2019-01-21T17:08:41.498Z,22.33
2019-01-21T17:11:10.660Z,21.80
2019-01-21T17:13:39.537Z,20.77
2019-01-21T17:16:08.492Z,21.17
2019-01-21T17:18:38.123Z,21.03
2019-01-21T17:21:07.305Z,20.80
2019-01-21T17:23:36.187Z,21.60
2019-01-21T17:26:05.327Z,21.50
2019-01-21T17:28:34.881Z,22.27
2019-01-21T17:31:03.845Z,21.97
2019-01-21T17:33:32.821Z,21.93
2019-01-21T17:36:01.816Z,22.67
2019-01-21T17:38:30.636Z,23.50
2019-01-21T17:40:59.672Z,22.37
2019-01-21T17:43:28.774Z,21.33
2019-01-21T17:45:57.795Z,21.90
2019-01-21T17:48:26.730Z,22.37
2019-01-21T17:50:55.600Z,22.13
2019-01-21T17:53:24.599Z,22.70
2019-01-21T17:55:54.098Z,21.80
2019-01-21T17:58:23.018Z,21.37
2019-01-21T18:00:52.111Z,22.50
2019-01-21T18:03:21.092Z,21.50
2019-01-21T18:05:50.574Z,21.83
2019-01-21T18:08:20.137Z,22.03
2019-01-21T18:10:49.736Z,21.47
2019-01-21T18:13:18.589Z,23.40
2019-01-21T18:15:47.773Z,23.70
2019-01-21T18:18:16.829Z,23.10
2019-01-21T18:20:47.769Z,22.07
2019-01-21T18:23:16.850Z,22.97
2019-01-21T18:25:45.635Z,23.53
2019-01-21T18:28:14.810Z,23.23
2019-01-21T18:30:43.998Z,23.43
2019-01-21T18:33:13.299Z,24.07
2019-01-21T18:35:42.309Z,24.67
2019-01-21T18:38:11.611Z,23.83
2019-01-21T18:40:40.419Z,22.80
2019-01-21T18:43:09.704Z,22.40
2019-01-21T18:45:38.735Z,24.07
2019-01-21T18:48:09.461Z,24.20
2019-01-21T18:50:38.440Z,22.50
2019-01-21T18:53:07.656Z,24.00
2019-01-21T18:55:36.551Z,23.90
2019-01-21T18:58:05.685Z,24.60
2019-01-21T19:00:35.555Z,24.23
2019-01-21T19:03:05.020Z,24.87
2019-01-21T19:05:34.093Z,24.53
2019-01-21T19:08:07.924Z,24.53
2019-01-21T19:10:37.364Z,25.30
2019-01-21T19:13:06.319Z,25.20
2019-01-21T19:15:35.934Z,24.80
2019-01-21T19:18:05.205Z,24.27
2019-01-21T19:20:34.434Z,22.57
2019-01-21T19:23:21.225Z,26.30
2019-01-21T19:25:50.359Z,24.30
2019-01-21T19:28:19.359Z,24.10
2019-01-21T19:30:49.001Z,24.10
2019-01-21T19:33:17.920Z,24.40
2019-01-21T19:35:47.004Z,24.33
2019-01-21T19:38:16.409Z,24.57
2019-01-21T19:40:45.743Z,25.33
2019-01-21T19:43:14.836Z,23.47
2019-01-21T19:45:45.059Z,23.80
2019-01-21T19:48:14.118Z,22.90
2019-01-21T19:50:43.167Z,23.93
2019-01-21T19:53:12.691Z,23.47
2019-01-21T19:55:43.028Z,24.27
2019-01-21T19:58:12.589Z,24.67
2019-01-21T20:00:42.003Z,23.83
2019-01-21T20:03:11.973Z,23.03
2019-01-21T20:05:41.248Z,24.53
2019-01-21T20:08:10.657Z,24.13
2019-01-21T20:10:39.764Z,21.83
2019-01-21T20:13:08.860Z,22.83
2019-01-21T20:15:38.281Z,22.67
2019-01-21T20:18:08.064Z,22.77
2019-01-21T20:20:38.406Z,22.22
2019-01-21T20:23:07.785Z,22.63
2019-01-21T20:25:36.645Z,22.73
2019-01-21T20:28:05.890Z,22.27
2019-01-21T20:30:34.990Z,22.70
2019-01-21T20:33:04.364Z,23.37
2019-01-21T20:35:33.448Z,25.53
2019-01-21T20:38:03.600Z,28.80
2019-01-21T20:40:32.811Z,26.23
2019-01-21T20:43:02.318Z,28.27
2019-01-21T20:45:31.461Z,26.27
2019-01-21T20:48:00.915Z,26.60
2019-01-21T20:50:30.519Z,25.73
2019-01-21T20:52:59.917Z,26.53
2019-01-21T20:55:29.038Z,25.17
2019-01-21T20:57:59.856Z,25.37
2019-01-21T21:00:29.711Z,24.43
2019-01-21T21:03:02.564Z,23.30
2019-01-21T21:05:32.883Z,24.13
2019-01-21T21:08:01.805Z,24.63
2019-01-21T21:10:30.899Z,23.50
2019-01-21T21:13:00.599Z,24.50
2019-01-21T21:15:30.932Z,23.83
2019-01-21T21:18:00.130Z,24.50
2019-01-21T21:20:29.844Z,25.70
2019-01-21T21:22:58.822Z,24.00
2019-01-21T21:25:27.870Z,24.93
2019-01-21T21:27:56.744Z,25.20
2019-01-21T21:30:26.762Z,25.53
2019-01-21T21:32:55.599Z,24.77
2019-01-21T21:35:25.199Z,24.93
2019-01-21T21:37:54.186Z,23.63
2019-01-21T21:40:23.544Z,23.47
2019-01-21T21:42:52.377Z,23.87
2019-01-21T21:45:21.985Z,23.17
2019-01-21T21:47:51.280Z,23.43
2019-01-21T21:50:21.534Z,23.57
2019-01-21T21:52:50.432Z,24.90
2019-01-21T21:55:19.191Z,25.33
2019-01-21T21:57:48.296Z,44.97
2019-01-21T22:00:18.249Z,24.90
2019-01-21T22:02:47.324Z,21.40
2019-01-21T22:05:16.729Z,23.80
2019-01-21T22:07:45.514Z,24.03
2019-01-21T22:10:19.575Z,23.83
2019-01-21T22:12:46.540Z,23.53
2019-01-21T22:15:16.431Z,23.30
2019-01-21T22:17:45.318Z,24.37
2019-01-21T22:20:16.540Z,24.50
2019-01-21T22:22:45.707Z,24.07
2019-01-21T22:25:14.686Z,23.83
2019-01-21T22:27:43.935Z,24.23
2019-01-21T22:30:14.394Z,22.67
2019-01-21T22:32:43.595Z,24.20
2019-01-21T22:35:12.450Z,23.63
2019-01-21T22:37:41.531Z,23.30
2019-01-21T22:40:11.928Z,23.63
2019-01-21T22:42:41.382Z,22.07
2019-01-21T22:45:10.685Z,24.67
2019-01-21T22:47:40.364Z,22.23
2019-01-21T22:50:10.994Z,23.47
2019-01-21T22:52:41.910Z,22.77
2019-01-21T22:55:11.731Z,22.70
2019-01-21T22:57:40.767Z,23.77
2019-01-21T23:00:30.907Z,23.17
2019-01-21T23:03:00.199Z,22.63
2019-01-21T23:05:29.124Z,22.53
2019-01-21T23:07:58.002Z,22.40
2019-01-21T23:10:26.832Z,23.93
2019-01-21T23:12:56.731Z,23.33
2019-01-21T23:15:25.669Z,22.57
2019-01-21T23:17:54.805Z,22.17
2019-01-21T23:20:23.689Z,23.03
2019-01-21T23:22:52.575Z,22.93
2019-01-21T23:25:22.276Z,22.83
2019-01-21T23:27:52.556Z,22.13
2019-01-21T23:30:22.477Z,22.83
2019-01-21T23:32:51.354Z,23.23
2019-01-21T23:35:21.939Z,22.33
2019-01-21T23:37:50.967Z,22.50
2019-01-21T23:40:20.049Z,22.00
2019-01-21T23:42:49.007Z,24.37
2019-01-21T23:45:20.481Z,22.73
2019-01-21T23:47:49.638Z,23.67
2019-01-21T23:50:18.546Z,24.47
2019-01-21T23:52:47.566Z,23.70
2019-01-21T23:55:16.730Z,24.17
2019-01-21T23:57:45.738Z,24.27
